sensor_id;sensor_type;location;lat;lon;timestamp;temperature;humidity
1948;DHT22;974;52.400;9.818;2023-03-05T00:01:10;2.90;99.90
1948;DHT22;974;52.400;9.818;2023-03-05T00:03:35;2.80;99.90
1948;DHT22;974;52.400;9.818;2023-03-05T00:06:01;2.90;99.90
1948;DHT22;974;52.400;9.818;2023-03-05T00:08:27;2.90;99.90
1948;DHT22;974;52.400;9.818;2023-03-05T00:10:58;2.90;99.90
1948;DHT22;974;52.400;9.818;2023-03-05T00:13:24;2.90;99.90
1948;DHT22;974;52.400;9.818;2023-03-05T00:15:49;2.90;99.90
1948;DHT22;974;52.400;9.818;2023-03-05T00:18:15;2.90;99.90
1948;DHT22;974;52.400;9.818;2023-03-05T00:20:40;2.90;99.90
1948;DHT22;974;52.400;9.818;2023-03-05T00:23:06;3.00;99.90
1948;DHT22;974;52.400;9.818;2023-03-05T00:25:34;2.90;99.90
1948;DHT22;974;52.400;9.818;2023-03-05T00:28:00;2.90;99.90
1948;DHT22;974;52.400;9.818;2023-03-05T00:30:25;2.90;99.90
1948;DHT22;974;52.400;9.818;2023-03-05T00:32:50;3.00;99.90
1948;DHT22;974;52.400;9.818;2023-03-05T00:35:16;3.00;99.90
1948;DHT22;974;52.400;9.818;2023-03-05T00:37:41;2.90;99.90
1948;DHT22;974;52.400;9.818;2023-03-05T00:40:08;2.80;99.90
1948;DHT22;974;52.400;9.818;2023-03-05T00:42:34;2.80;99.90
1948;DHT22;974;52.400;9.818;2023-03-05T00:45:07;2.90;99.90
1948;DHT22;974;52.400;9.818;2023-03-05T00:47:32;2.90;99.90
1948;DHT22;974;52.400;9.818;2023-03-05T00:49:58;2.80;99.90
1948;DHT22;974;52.400;9.818;2023-03-05T00:52:23;2.80;99.90
1948;DHT22;974;52.400;9.818;2023-03-05T00:54:49;2.90;99.90
1948;DHT22;974;52.400;9.818;2023-03-05T00:57:14;2.90;99.90
1948;DHT22;974;52.400;9.818;2023-03-05T00:59:40;3.00;99.90
1948;DHT22;974;52.400;9.818;2023-03-05T01:02:06;2.90;99.90
1948;DHT22;974;52.400;9.818;2023-03-05T01:04:31;2.90;99.90
1948;DHT22;974;52.400;9.818;2023-03-05T01:06:57;2.90;99.90
1948;DHT22;974;52.400;9.818;2023-03-05T01:09:22;2.80;99.90
1948;DHT22;974;52.400;9.818;2023-03-05T01:11:52;2.90;99.90
1948;DHT22;974;52.400;9.818;2023-03-05T01:14:19;3.00;99.90
1948;DHT22;974;52.400;9.818;2023-03-05T01:16:45;3.00;99.90
1948;DHT22;974;52.400;9.818;2023-03-05T01:19:11;2.90;99.90
1948;DHT22;974;52.400;9.818;2023-03-05T01:21:36;2.90;99.90
1948;DHT22;974;52.400;9.818;2023-03-05T01:24:02;2.90;99.90
1948;DHT22;974;52.400;9.818;2023-03-05T01:26:28;3.00;99.90
1948;DHT22;974;52.400;9.818;2023-03-05T01:28:54;2.70;99.90
1948;DHT22;974;52.400;9.818;2023-03-05T01:31:19;2.80;99.90
1948;DHT22;974;52.400;9.818;2023-03-05T01:33:45;2.90;99.90
1948;DHT22;974;52.400;9.818;2023-03-05T01:36:12;3.00;99.90
1948;DHT22;974;52.400;9.818;2023-03-05T01:38:41;3.00;99.90
1948;DHT22;974;52.400;9.818;2023-03-05T01:41:08;3.00;99.90
1948;DHT22;974;52.400;9.818;2023-03-05T01:43:34;3.00;99.90
1948;DHT22;974;52.400;9.818;2023-03-05T01:48:43;2.90;99.90
1948;DHT22;974;52.400;9.818;2023-03-05T01:51:10;2.90;99.90
1948;DHT22;974;52.400;9.818;2023-03-05T01:53:36;3.00;99.90
1948;DHT22;974;52.400;9.818;2023-03-05T01:56:02;2.90;99.90
1948;DHT22;974;52.400;9.818;2023-03-05T01:58:27;2.90;99.90
1948;DHT22;974;52.400;9.818;2023-03-05T02:00:54;2.90;99.90
1948;DHT22;974;52.400;9.818;2023-03-05T02:03:21;3.00;99.90
1948;DHT22;974;52.400;9.818;2023-03-05T02:05:47;3.00;99.90
1948;DHT22;974;52.400;9.818;2023-03-05T02:08:18;3.10;99.90
1948;DHT22;974;52.400;9.818;2023-03-05T02:10:48;3.00;99.90
1948;DHT22;974;52.400;9.818;2023-03-05T02:13:18;2.90;99.90
1948;DHT22;974;52.400;9.818;2023-03-05T02:15:44;3.00;99.90
1948;DHT22;974;52.400;9.818;2023-03-05T02:18:12;2.90;99.90
1948;DHT22;974;52.400;9.818;2023-03-05T02:21:05;2.80;99.90
1948;DHT22;974;52.400;9.818;2023-03-05T02:23:33;2.80;99.90
1948;DHT22;974;52.400;9.818;2023-03-05T02:26:01;2.90;99.90
1948;DHT22;974;52.400;9.818;2023-03-05T02:28:39;2.90;99.90
1948;DHT22;974;52.400;9.818;2023-03-05T02:31:16;2.80;99.90
1948;DHT22;974;52.400;9.818;2023-03-05T02:33:42;2.80;99.90
1948;DHT22;974;52.400;9.818;2023-03-05T02:36:08;2.80;99.90
1948;DHT22;974;52.400;9.818;2023-03-05T02:38:33;2.90;99.90
1948;DHT22;974;52.400;9.818;2023-03-05T02:40:59;2.90;99.90
1948;DHT22;974;52.400;9.818;2023-03-05T02:43:25;2.90;99.90
1948;DHT22;974;52.400;9.818;2023-03-05T02:45:50;2.90;99.90
1948;DHT22;974;52.400;9.818;2023-03-05T02:48:16;2.90;99.90
1948;DHT22;974;52.400;9.818;2023-03-05T02:50:41;2.90;99.90
1948;DHT22;974;52.400;9.818;2023-03-05T02:53:07;3.00;99.90
1948;DHT22;974;52.400;9.818;2023-03-05T02:55:33;3.00;99.90
1948;DHT22;974;52.400;9.818;2023-03-05T02:57:59;2.80;99.90
1948;DHT22;974;52.400;9.818;2023-03-05T03:00:24;2.90;99.90
1948;DHT22;974;52.400;9.818;2023-03-05T03:02:51;2.70;99.90
1948;DHT22;974;52.400;9.818;2023-03-05T03:05:16;2.80;99.90
1948;DHT22;974;52.400;9.818;2023-03-05T03:07:42;2.90;99.90
1948;DHT22;974;52.400;9.818;2023-03-05T03:10:08;2.90;99.90
1948;DHT22;974;52.400;9.818;2023-03-05T03:12:41;2.90;99.90
1948;DHT22;974;52.400;9.818;2023-03-05T03:15:08;2.90;99.90
1948;DHT22;974;52.400;9.818;2023-03-05T03:17:36;3.00;99.90
1948;DHT22;974;52.400;9.818;2023-03-05T03:20:04;3.00;99.90
1948;DHT22;974;52.400;9.818;2023-03-05T03:22:30;2.90;99.90
1948;DHT22;974;52.400;9.818;2023-03-05T03:24:55;2.90;99.90
1948;DHT22;974;52.400;9.818;2023-03-05T03:27:21;3.00;99.90
1948;DHT22;974;52.400;9.818;2023-03-05T03:29:47;2.90;99.90
1948;DHT22;974;52.400;9.818;2023-03-05T03:32:12;3.00;99.90
1948;DHT22;974;52.400;9.818;2023-03-05T03:34:38;2.90;99.90
1948;DHT22;974;52.400;9.818;2023-03-05T03:37:03;2.90;99.90
1948;DHT22;974;52.400;9.818;2023-03-05T03:39:29;2.80;99.90
1948;DHT22;974;52.400;9.818;2023-03-05T03:41:55;2.80;99.90
1948;DHT22;974;52.400;9.818;2023-03-05T03:44:21;2.70;99.90
1948;DHT22;974;52.400;9.818;2023-03-05T03:46:48;2.70;99.90
1948;DHT22;974;52.400;9.818;2023-03-05T03:49:21;2.70;99.90
1948;DHT22;974;52.400;9.818;2023-03-05T03:51:49;2.70;99.90
1948;DHT22;974;52.400;9.818;2023-03-05T03:54:16;2.50;99.90
1948;DHT22;974;52.400;9.818;2023-03-05T03:56:42;2.50;99.90
1948;DHT22;974;52.400;9.818;2023-03-05T03:59:08;2.50;99.90
1948;DHT22;974;52.400;9.818;2023-03-05T04:01:34;2.60;99.90
1948;DHT22;974;52.400;9.818;2023-03-05T04:03:59;2.50;99.90
1948;DHT22;974;52.400;9.818;2023-03-05T04:06:25;2.60;99.90
1948;DHT22;974;52.400;9.818;2023-03-05T04:08:50;2.60;99.90
1948;DHT22;974;52.400;9.818;2023-03-05T04:11:16;2.60;99.90
1948;DHT22;974;52.400;9.818;2023-03-05T04:13:44;2.70;99.90
1948;DHT22;974;52.400;9.818;2023-03-05T04:16:09;2.60;99.90
1948;DHT22;974;52.400;9.818;2023-03-05T04:18:35;2.60;99.90
1948;DHT22;974;52.400;9.818;2023-03-05T04:21:00;2.60;99.90
1948;DHT22;974;52.400;9.818;2023-03-05T04:23:26;2.50;99.90
1948;DHT22;974;52.400;9.818;2023-03-05T04:25:51;2.60;99.90
1948;DHT22;974;52.400;9.818;2023-03-05T04:28:17;2.60;99.90
1948;DHT22;974;52.400;9.818;2023-03-05T04:30:43;2.50;99.90
1948;DHT22;974;52.400;9.818;2023-03-05T04:33:08;2.70;99.90
1948;DHT22;974;52.400;9.818;2023-03-05T04:35:34;2.70;99.90
1948;DHT22;974;52.400;9.818;2023-03-05T04:37:59;2.60;99.90
1948;DHT22;974;52.400;9.818;2023-03-05T04:40:25;2.70;99.90
1948;DHT22;974;52.400;9.818;2023-03-05T04:42:50;2.70;99.90
1948;DHT22;974;52.400;9.818;2023-03-05T04:45:16;2.60;99.90
1948;DHT22;974;52.400;9.818;2023-03-05T04:47:42;2.70;99.90
1948;DHT22;974;52.400;9.818;2023-03-05T04:50:08;2.80;99.90
1948;DHT22;974;52.400;9.818;2023-03-05T04:52:40;2.60;99.90
1948;DHT22;974;52.400;9.818;2023-03-05T04:55:06;2.70;99.90
1948;DHT22;974;52.400;9.818;2023-03-05T04:57:32;2.70;99.90
1948;DHT22;974;52.400;9.818;2023-03-05T04:59:57;2.70;99.90
1948;DHT22;974;52.400;9.818;2023-03-05T05:02:23;2.70;99.90
1948;DHT22;974;52.400;9.818;2023-03-05T05:04:52;2.70;99.90
1948;DHT22;974;52.400;9.818;2023-03-05T05:07:17;2.80;99.90
1948;DHT22;974;52.400;9.818;2023-03-05T05:09:43;2.80;99.90
1948;DHT22;974;52.400;9.818;2023-03-05T05:12:09;2.80;99.90
1948;DHT22;974;52.400;9.818;2023-03-05T05:14:34;2.80;99.90
1948;DHT22;974;52.400;9.818;2023-03-05T05:17:00;2.80;99.90
1948;DHT22;974;52.400;9.818;2023-03-05T05:19:29;2.80;99.90
1948;DHT22;974;52.400;9.818;2023-03-05T05:21:55;2.70;99.90
1948;DHT22;974;52.400;9.818;2023-03-05T05:24:20;2.80;99.90
1948;DHT22;974;52.400;9.818;2023-03-05T05:26:46;2.80;99.90
1948;DHT22;974;52.400;9.818;2023-03-05T05:29:11;2.80;99.90
1948;DHT22;974;52.400;9.818;2023-03-05T05:31:37;2.70;99.90
1948;DHT22;974;52.400;9.818;2023-03-05T05:34:03;2.70;99.90
1948;DHT22;974;52.400;9.818;2023-03-05T05:36:28;2.70;99.90
1948;DHT22;974;52.400;9.818;2023-03-05T05:38:54;2.70;99.90
1948;DHT22;974;52.400;9.818;2023-03-05T05:41:20;2.70;99.90
1948;DHT22;974;52.400;9.818;2023-03-05T05:43:45;2.60;99.90
1948;DHT22;974;52.400;9.818;2023-03-05T05:46:13;2.70;99.90
1948;DHT22;974;52.400;9.818;2023-03-05T05:48:39;2.70;99.90
1948;DHT22;974;52.400;9.818;2023-03-05T05:51:10;2.70;99.90
1948;DHT22;974;52.400;9.818;2023-03-05T05:53:36;2.70;99.90
1948;DHT22;974;52.400;9.818;2023-03-05T05:56:06;2.70;99.90
1948;DHT22;974;52.400;9.818;2023-03-05T05:58:32;2.60;99.90
1948;DHT22;974;52.400;9.818;2023-03-05T06:00:57;2.70;99.90
1948;DHT22;974;52.400;9.818;2023-03-05T06:03:23;2.70;99.90
1948;DHT22;974;52.400;9.818;2023-03-05T06:05:48;2.70;99.90
1948;DHT22;974;52.400;9.818;2023-03-05T06:08:16;2.70;99.90
1948;DHT22;974;52.400;9.818;2023-03-05T06:10:42;2.70;99.90
1948;DHT22;974;52.400;9.818;2023-03-05T06:13:07;2.70;99.90
1948;DHT22;974;52.400;9.818;2023-03-05T06:15:33;2.80;99.90
1948;DHT22;974;52.400;9.818;2023-03-05T06:17:59;2.90;99.90
1948;DHT22;974;52.400;9.818;2023-03-05T06:20:25;2.80;99.90
1948;DHT22;974;52.400;9.818;2023-03-05T06:22:50;2.70;99.90
1948;DHT22;974;52.400;9.818;2023-03-05T06:25:16;2.90;99.90
1948;DHT22;974;52.400;9.818;2023-03-05T06:27:41;2.80;99.90
1948;DHT22;974;52.400;9.818;2023-03-05T06:30:08;2.70;99.90
1948;DHT22;974;52.400;9.818;2023-03-05T06:32:34;2.80;99.90
1948;DHT22;974;52.400;9.818;2023-03-05T06:34:59;2.80;99.90
1948;DHT22;974;52.400;9.818;2023-03-05T06:37:25;2.90;99.90
1948;DHT22;974;52.400;9.818;2023-03-05T06:39:50;2.90;99.90
1948;DHT22;974;52.400;9.818;2023-03-05T06:42:16;2.70;99.90
1948;DHT22;974;52.400;9.818;2023-03-05T06:44:44;2.70;99.90
1948;DHT22;974;52.400;9.818;2023-03-05T06:47:10;2.80;99.90
1948;DHT22;974;52.400;9.818;2023-03-05T06:49:39;2.80;99.90
1948;DHT22;974;52.400;9.818;2023-03-05T06:52:05;2.80;99.90
1948;DHT22;974;52.400;9.818;2023-03-05T06:54:31;2.80;99.90
1948;DHT22;974;52.400;9.818;2023-03-05T06:56:57;2.80;99.90
1948;DHT22;974;52.400;9.818;2023-03-05T06:59:22;2.80;99.90
1948;DHT22;974;52.400;9.818;2023-03-05T07:01:48;2.90;99.90
1948;DHT22;974;52.400;9.818;2023-03-05T07:04:14;2.90;99.90
1948;DHT22;974;52.400;9.818;2023-03-05T07:06:40;2.80;99.90
1948;DHT22;974;52.400;9.818;2023-03-05T07:09:07;2.80;99.90
1948;DHT22;974;52.400;9.818;2023-03-05T07:11:34;2.90;99.90
1948;DHT22;974;52.400;9.818;2023-03-05T07:14:00;2.90;99.90
1948;DHT22;974;52.400;9.818;2023-03-05T07:16:28;3.00;99.90
1948;DHT22;974;52.400;9.818;2023-03-05T07:18:55;3.00;99.90
1948;DHT22;974;52.400;9.818;2023-03-05T07:21:24;3.10;99.90
1948;DHT22;974;52.400;9.818;2023-03-05T07:23:53;3.10;99.90
1948;DHT22;974;52.400;9.818;2023-03-05T07:26:18;3.10;99.90
1948;DHT22;974;52.400;9.818;2023-03-05T07:28:44;3.00;99.90
1948;DHT22;974;52.400;9.818;2023-03-05T07:31:20;3.10;99.90
1948;DHT22;974;52.400;9.818;2023-03-05T07:33:47;3.20;99.90
1948;DHT22;974;52.400;9.818;2023-03-05T07:36:14;3.30;99.90
1948;DHT22;974;52.400;9.818;2023-03-05T07:38:40;3.30;99.90
1948;DHT22;974;52.400;9.818;2023-03-05T07:41:14;3.20;99.90
1948;DHT22;974;52.400;9.818;2023-03-05T07:43:44;3.20;99.90
1948;DHT22;974;52.400;9.818;2023-03-05T07:46:12;3.20;99.90
1948;DHT22;974;52.400;9.818;2023-03-05T07:48:38;3.40;99.90
1948;DHT22;974;52.400;9.818;2023-03-05T07:51:16;3.20;99.90
1948;DHT22;974;52.400;9.818;2023-03-05T07:53:43;3.30;99.90
1948;DHT22;974;52.400;9.818;2023-03-05T07:56:09;3.20;99.90
1948;DHT22;974;52.400;9.818;2023-03-05T07:58:35;3.30;99.90
1948;DHT22;974;52.400;9.818;2023-03-05T08:01:01;3.30;99.90
1948;DHT22;974;52.400;9.818;2023-03-05T08:03:26;3.30;99.90
1948;DHT22;974;52.400;9.818;2023-03-05T08:05:52;3.20;99.90
1948;DHT22;974;52.400;9.818;2023-03-05T08:08:17;3.30;99.90
1948;DHT22;974;52.400;9.818;2023-03-05T08:10:43;3.20;99.90
1948;DHT22;974;52.400;9.818;2023-03-05T08:13:09;3.10;99.90
1948;DHT22;974;52.400;9.818;2023-03-05T08:15:36;3.10;99.90
1948;DHT22;974;52.400;9.818;2023-03-05T08:18:01;3.00;99.90
1948;DHT22;974;52.400;9.818;2023-03-05T08:20:27;3.00;99.90
1948;DHT22;974;52.400;9.818;2023-03-05T08:22:52;3.20;99.90
1948;DHT22;974;52.400;9.818;2023-03-05T08:25:18;3.30;99.90
1948;DHT22;974;52.400;9.818;2023-03-05T08:27:45;3.20;99.90
1948;DHT22;974;52.400;9.818;2023-03-05T08:30:14;3.30;99.90
1948;DHT22;974;52.400;9.818;2023-03-05T08:32:40;3.40;99.90
1948;DHT22;974;52.400;9.818;2023-03-05T08:35:06;3.40;99.90
1948;DHT22;974;52.400;9.818;2023-03-05T08:37:32;3.30;99.90
1948;DHT22;974;52.400;9.818;2023-03-05T08:39:57;3.40;99.90
1948;DHT22;974;52.400;9.818;2023-03-05T08:42:23;3.30;99.90
1948;DHT22;974;52.400;9.818;2023-03-05T08:44:49;3.30;99.90
1948;DHT22;974;52.400;9.818;2023-03-05T08:47:15;3.40;99.90
1948;DHT22;974;52.400;9.818;2023-03-05T08:49:41;3.40;99.90
1948;DHT22;974;52.400;9.818;2023-03-05T08:52:06;3.50;99.90
1948;DHT22;974;52.400;9.818;2023-03-05T08:54:33;3.70;99.90
1948;DHT22;974;52.400;9.818;2023-03-05T08:56:58;3.60;99.90
1948;DHT22;974;52.400;9.818;2023-03-05T08:59:24;3.60;99.90
1948;DHT22;974;52.400;9.818;2023-03-05T09:01:49;3.70;99.90
1948;DHT22;974;52.400;9.818;2023-03-05T09:04:15;3.60;99.90
1948;DHT22;974;52.400;9.818;2023-03-05T09:06:40;3.60;99.90
1948;DHT22;974;52.400;9.818;2023-03-05T09:09:07;3.70;99.90
1948;DHT22;974;52.400;9.818;2023-03-05T09:11:34;3.70;99.90
1948;DHT22;974;52.400;9.818;2023-03-05T09:14:01;3.50;99.90
1948;DHT22;974;52.400;9.818;2023-03-05T09:16:27;3.60;99.90
1948;DHT22;974;52.400;9.818;2023-03-05T09:18:52;3.60;99.90
1948;DHT22;974;52.400;9.818;2023-03-05T09:21:18;3.70;99.90
1948;DHT22;974;52.400;9.818;2023-03-05T09:23:44;3.80;99.90
1948;DHT22;974;52.400;9.818;2023-03-05T09:26:12;3.90;99.90
1948;DHT22;974;52.400;9.818;2023-03-05T09:28:40;3.80;99.90
1948;DHT22;974;52.400;9.818;2023-03-05T09:31:07;3.80;99.90
1948;DHT22;974;52.400;9.818;2023-03-05T09:33:34;3.90;99.90
1948;DHT22;974;52.400;9.818;2023-03-05T09:36:00;3.90;99.90
1948;DHT22;974;52.400;9.818;2023-03-05T09:38:27;4.10;99.90
1948;DHT22;974;52.400;9.818;2023-03-05T09:41:05;4.20;99.90
1948;DHT22;974;52.400;9.818;2023-03-05T09:46:27;4.20;99.90
1948;DHT22;974;52.400;9.818;2023-03-05T09:49:09;4.20;99.90
1948;DHT22;974;52.400;9.818;2023-03-05T09:51:39;4.20;99.90
1948;DHT22;974;52.400;9.818;2023-03-05T09:54:14;4.30;99.90
1948;DHT22;974;52.400;9.818;2023-03-05T09:56:50;4.50;99.90
1948;DHT22;974;52.400;9.818;2023-03-05T10:01:55;4.70;99.90
1948;DHT22;974;52.400;9.818;2023-03-05T10:04:28;4.60;99.90
1948;DHT22;974;52.400;9.818;2023-03-05T10:07:10;4.50;99.90
1948;DHT22;974;52.400;9.818;2023-03-05T10:09:48;4.40;99.90
1948;DHT22;974;52.400;9.818;2023-03-05T10:14:57;4.60;99.90
1948;DHT22;974;52.400;9.818;2023-03-05T10:18:03;4.60;99.90
1948;DHT22;974;52.400;9.818;2023-03-05T10:23:25;4.50;99.90
1948;DHT22;974;52.400;9.818;2023-03-05T10:28:48;4.50;99.90
1948;DHT22;974;52.400;9.818;2023-03-05T10:31:39;4.50;99.90
1948;DHT22;974;52.400;9.818;2023-03-05T10:34:34;4.50;99.90
1948;DHT22;974;52.400;9.818;2023-03-05T10:37:11;4.70;99.90
1948;DHT22;974;52.400;9.818;2023-03-05T10:40:02;4.50;99.90
1948;DHT22;974;52.400;9.818;2023-03-05T10:43:13;4.80;99.90
1948;DHT22;974;52.400;9.818;2023-03-05T10:45:44;4.60;99.90
1948;DHT22;974;52.400;9.818;2023-03-05T10:48:33;4.80;99.90
1948;DHT22;974;52.400;9.818;2023-03-05T10:51:46;4.70;99.90
1948;DHT22;974;52.400;9.818;2023-03-05T10:54:03;4.90;99.90
1948;DHT22;974;52.400;9.818;2023-03-05T10:56:29;5.00;99.90
1948;DHT22;974;52.400;9.818;2023-03-05T10:58:56;4.90;99.90
1948;DHT22;974;52.400;9.818;2023-03-05T11:01:24;5.20;99.90
1948;DHT22;974;52.400;9.818;2023-03-05T11:03:53;5.50;99.90
1948;DHT22;974;52.400;9.818;2023-03-05T11:06:28;5.70;99.90
1948;DHT22;974;52.400;9.818;2023-03-05T11:08:55;5.40;99.90
1948;DHT22;974;52.400;9.818;2023-03-05T11:11:22;5.50;99.90
1948;DHT22;974;52.400;9.818;2023-03-05T11:13:56;5.40;99.90
1948;DHT22;974;52.400;9.818;2023-03-05T11:16:31;5.50;99.90
1948;DHT22;974;52.400;9.818;2023-03-05T11:19:19;5.70;99.90
1948;DHT22;974;52.400;9.818;2023-03-05T11:22:13;5.60;99.90
1948;DHT22;974;52.400;9.818;2023-03-05T11:24:39;5.40;99.90
1948;DHT22;974;52.400;9.818;2023-03-05T11:27:23;5.20;99.90
1948;DHT22;974;52.400;9.818;2023-03-05T11:29:50;5.20;99.90
1948;DHT22;974;52.400;9.818;2023-03-05T11:32:23;5.30;99.90
1948;DHT22;974;52.400;9.818;2023-03-05T11:34:50;5.40;99.90
1948;DHT22;974;52.400;9.818;2023-03-05T11:37:27;5.40;99.90
1948;DHT22;974;52.400;9.818;2023-03-05T11:42:34;5.30;99.90
1948;DHT22;974;52.400;9.818;2023-03-05T11:45:02;5.10;99.90
1948;DHT22;974;52.400;9.818;2023-03-05T11:50:15;4.90;99.90
1948;DHT22;974;52.400;9.818;2023-03-05T11:52:48;4.80;99.90
1948;DHT22;974;52.400;9.818;2023-03-05T11:55:27;4.70;99.90
1948;DHT22;974;52.400;9.818;2023-03-05T12:00:48;5.00;99.90
1948;DHT22;974;52.400;9.818;2023-03-05T12:03:16;4.90;99.90
1948;DHT22;974;52.400;9.818;2023-03-05T12:05:47;4.90;99.90
1948;DHT22;974;52.400;9.818;2023-03-05T12:08:16;5.00;99.90
1948;DHT22;974;52.400;9.818;2023-03-05T12:10:44;5.10;99.90
1948;DHT22;974;52.400;9.818;2023-03-05T12:13:29;5.20;99.90
1948;DHT22;974;52.400;9.818;2023-03-05T12:21:07;5.10;99.90
1948;DHT22;974;52.400;9.818;2023-03-05T12:26:13;4.80;99.90
1948;DHT22;974;52.400;9.818;2023-03-05T12:33:40;4.50;99.90
1948;DHT22;974;52.400;9.818;2023-03-05T12:46:36;7.30;99.90
1948;DHT22;974;52.400;9.818;2023-03-05T12:51:44;6.30;99.90
1948;DHT22;974;52.400;9.818;2023-03-05T12:56:45;6.00;99.90
1948;DHT22;974;52.400;9.818;2023-03-05T12:59:12;5.90;99.90
1948;DHT22;974;52.400;9.818;2023-03-05T13:02:00;5.70;99.90
1948;DHT22;974;52.400;9.818;2023-03-05T13:04:29;5.90;99.90
1948;DHT22;974;52.400;9.818;2023-03-05T13:07:05;5.80;99.90
1948;DHT22;974;52.400;9.818;2023-03-05T13:09:33;5.30;99.90
1948;DHT22;974;52.400;9.818;2023-03-05T13:12:02;5.20;99.90
1948;DHT22;974;52.400;9.818;2023-03-05T13:14:32;5.10;99.90
1948;DHT22;974;52.400;9.818;2023-03-05T13:16:59;5.10;99.90
1948;DHT22;974;52.400;9.818;2023-03-05T13:19:25;5.10;99.90
1948;DHT22;974;52.400;9.818;2023-03-05T13:22:01;5.10;99.90
1948;DHT22;974;52.400;9.818;2023-03-05T13:24:28;5.30;99.90
1948;DHT22;974;52.400;9.818;2023-03-05T13:26:54;6.10;99.90
1948;DHT22;974;52.400;9.818;2023-03-05T13:29:24;6.90;99.90
1948;DHT22;974;52.400;9.818;2023-03-05T13:31:56;7.70;99.90
1948;DHT22;974;52.400;9.818;2023-03-05T13:34:31;8.50;99.90
1948;DHT22;974;52.400;9.818;2023-03-05T13:37:04;7.80;99.90
1948;DHT22;974;52.400;9.818;2023-03-05T13:39:33;7.50;99.90
1948;DHT22;974;52.400;9.818;2023-03-05T13:42:13;7.20;99.90
1948;DHT22;974;52.400;9.818;2023-03-05T13:44:39;6.50;99.90
1948;DHT22;974;52.400;9.818;2023-03-05T13:47:19;6.20;99.90
1948;DHT22;974;52.400;9.818;2023-03-05T13:49:45;6.00;99.90
1948;DHT22;974;52.400;9.818;2023-03-05T13:52:22;5.80;99.90
1948;DHT22;974;52.400;9.818;2023-03-05T13:54:48;5.60;99.90
1948;DHT22;974;52.400;9.818;2023-03-05T13:57:32;5.40;99.90
1948;DHT22;974;52.400;9.818;2023-03-05T13:59:58;5.60;99.90
1948;DHT22;974;52.400;9.818;2023-03-05T14:02:25;5.80;99.90
1948;DHT22;974;52.400;9.818;2023-03-05T14:04:51;5.70;99.90
1948;DHT22;974;52.400;9.818;2023-03-05T14:07:32;5.70;99.90
1948;DHT22;974;52.400;9.818;2023-03-05T14:10:00;5.80;99.90
1948;DHT22;974;52.400;9.818;2023-03-05T14:12:40;6.00;99.90
1948;DHT22;974;52.400;9.818;2023-03-05T14:15:24;6.00;99.90
1948;DHT22;974;52.400;9.818;2023-03-05T14:17:50;5.90;99.90
1948;DHT22;974;52.400;9.818;2023-03-05T14:20:26;5.90;99.90
1948;DHT22;974;52.400;9.818;2023-03-05T14:22:57;5.90;99.90
1948;DHT22;974;52.400;9.818;2023-03-05T14:25:37;5.80;99.90
1948;DHT22;974;52.400;9.818;2023-03-05T14:28:15;5.80;99.90
1948;DHT22;974;52.400;9.818;2023-03-05T14:30:48;5.80;99.90
1948;DHT22;974;52.400;9.818;2023-03-05T14:33:23;6.00;99.90
1948;DHT22;974;52.400;9.818;2023-03-05T14:35:51;6.20;99.90
1948;DHT22;974;52.400;9.818;2023-03-05T14:38:30;6.30;99.90
1948;DHT22;974;52.400;9.818;2023-03-05T14:41:27;6.20;99.90
1948;DHT22;974;52.400;9.818;2023-03-05T14:43:55;6.20;99.90
1948;DHT22;974;52.400;9.818;2023-03-05T14:46:21;6.10;99.90
1948;DHT22;974;52.400;9.818;2023-03-05T14:48:46;5.90;99.90
1948;DHT22;974;52.400;9.818;2023-03-05T14:51:12;5.80;99.90
1948;DHT22;974;52.400;9.818;2023-03-05T14:53:41;5.90;99.90
1948;DHT22;974;52.400;9.818;2023-03-05T14:56:25;6.00;99.90
1948;DHT22;974;52.400;9.818;2023-03-05T14:58:52;5.90;99.90
1948;DHT22;974;52.400;9.818;2023-03-05T15:01:18;5.80;99.90
1948;DHT22;974;52.400;9.818;2023-03-05T15:03:43;5.70;99.90
1948;DHT22;974;52.400;9.818;2023-03-05T15:06:17;5.70;99.90
1948;DHT22;974;52.400;9.818;2023-03-05T15:08:44;5.60;99.90
1948;DHT22;974;52.400;9.818;2023-03-05T15:11:09;5.70;99.90
1948;DHT22;974;52.400;9.818;2023-03-05T15:13:35;5.80;99.90
1948;DHT22;974;52.400;9.818;2023-03-05T15:16:01;5.90;99.90
1948;DHT22;974;52.400;9.818;2023-03-05T15:18:28;5.90;99.90
1948;DHT22;974;52.400;9.818;2023-03-05T15:20:55;5.90;99.90
1948;DHT22;974;52.400;9.818;2023-03-05T15:23:21;5.60;99.90
1948;DHT22;974;52.400;9.818;2023-03-05T15:25:47;5.70;99.90
1948;DHT22;974;52.400;9.818;2023-03-05T15:28:12;5.60;99.90
1948;DHT22;974;52.400;9.818;2023-03-05T15:30:41;5.60;99.90
1948;DHT22;974;52.400;9.818;2023-03-05T15:33:14;5.50;99.90
1948;DHT22;974;52.400;9.818;2023-03-05T15:35:40;5.50;99.90
1948;DHT22;974;52.400;9.818;2023-03-05T15:38:06;5.40;99.90
1948;DHT22;974;52.400;9.818;2023-03-05T15:40:32;5.30;99.90
1948;DHT22;974;52.400;9.818;2023-03-05T15:42:59;5.40;99.90
1948;DHT22;974;52.400;9.818;2023-03-05T15:45:24;5.30;99.90
1948;DHT22;974;52.400;9.818;2023-03-05T15:47:51;5.30;99.90
1948;DHT22;974;52.400;9.818;2023-03-05T15:50:19;5.20;99.90
1948;DHT22;974;52.400;9.818;2023-03-05T15:52:45;5.10;99.90
1948;DHT22;974;52.400;9.818;2023-03-05T15:55:10;5.10;99.90
1948;DHT22;974;52.400;9.818;2023-03-05T15:57:41;5.20;99.90
1948;DHT22;974;52.400;9.818;2023-03-05T16:00:08;5.20;99.90
1948;DHT22;974;52.400;9.818;2023-03-05T16:02:33;5.20;99.90
1948;DHT22;974;52.400;9.818;2023-03-05T16:04:59;5.20;99.90
1948;DHT22;974;52.400;9.818;2023-03-05T16:07:25;5.20;99.90
1948;DHT22;974;52.400;9.818;2023-03-05T16:09:51;5.20;99.90
1948;DHT22;974;52.400;9.818;2023-03-05T16:12:20;5.30;99.90
1948;DHT22;974;52.400;9.818;2023-03-05T16:14:47;5.30;99.90
1948;DHT22;974;52.400;9.818;2023-03-05T16:17:15;5.40;99.90
1948;DHT22;974;52.400;9.818;2023-03-05T16:19:43;5.30;99.90
1948;DHT22;974;52.400;9.818;2023-03-05T16:22:10;5.20;99.90
1948;DHT22;974;52.400;9.818;2023-03-05T16:24:35;5.30;99.90
1948;DHT22;974;52.400;9.818;2023-03-05T16:27:01;5.30;99.90
1948;DHT22;974;52.400;9.818;2023-03-05T16:29:26;5.30;99.90
1948;DHT22;974;52.400;9.818;2023-03-05T16:31:53;5.30;99.90
1948;DHT22;974;52.400;9.818;2023-03-05T16:34:19;5.20;99.90
1948;DHT22;974;52.400;9.818;2023-03-05T16:36:49;5.20;99.90
1948;DHT22;974;52.400;9.818;2023-03-05T16:39:19;5.00;99.90
1948;DHT22;974;52.400;9.818;2023-03-05T16:41:45;4.90;99.90
1948;DHT22;974;52.400;9.818;2023-03-05T16:44:11;4.80;99.90
1948;DHT22;974;52.400;9.818;2023-03-05T16:46:37;4.90;99.90
1948;DHT22;974;52.400;9.818;2023-03-05T16:49:03;4.90;99.90
1948;DHT22;974;52.400;9.818;2023-03-05T16:51:29;4.90;99.90
1948;DHT22;974;52.400;9.818;2023-03-05T16:53:55;4.90;99.90
1948;DHT22;974;52.400;9.818;2023-03-05T16:56:21;4.90;99.90
1948;DHT22;974;52.400;9.818;2023-03-05T16:58:46;4.90;99.90
1948;DHT22;974;52.400;9.818;2023-03-05T17:01:15;4.80;99.90
1948;DHT22;974;52.400;9.818;2023-03-05T17:03:41;4.80;99.90
1948;DHT22;974;52.400;9.818;2023-03-05T17:06:13;4.90;99.90
1948;DHT22;974;52.400;9.818;2023-03-05T17:08:40;4.90;99.90
1948;DHT22;974;52.400;9.818;2023-03-05T17:11:07;4.90;99.90
1948;DHT22;974;52.400;9.818;2023-03-05T17:13:33;4.90;99.90
1948;DHT22;974;52.400;9.818;2023-03-05T17:15:59;4.90;99.90
1948;DHT22;974;52.400;9.818;2023-03-05T17:18:24;4.80;99.90
1948;DHT22;974;52.400;9.818;2023-03-05T17:20:50;4.70;99.90
1948;DHT22;974;52.400;9.818;2023-03-05T17:23:16;5.20;99.90
1948;DHT22;974;52.400;9.818;2023-03-05T17:25:41;4.80;99.90
1948;DHT22;974;52.400;9.818;2023-03-05T17:28:06;4.70;99.90
1948;DHT22;974;52.400;9.818;2023-03-05T17:30:32;4.60;99.90
1948;DHT22;974;52.400;9.818;2023-03-05T17:33:00;4.60;99.90
1948;DHT22;974;52.400;9.818;2023-03-05T17:35:26;4.60;99.90